Time;durP1;ratioP1;P1;durP2;ratioP2;P2;SDS_P1;SDS_P2;PMS_P1;PMS_P2;Temp;Humidity;BMP_temperature;BMP_pressure;BME280_temperature;BME280_humidity;BME280_pressure;Samples;Min_cycle;Max_cycle;Signal;HPM_P1;HPM_P2
2023/03/16 00:00:43;;;;;;;2.00;1.70;;;3.00;99.90;;;;;;5017266;28;21030;-75
2023/03/16 00:03:18;;;;;;;2.67;1.40;;;2.90;99.90;;;;;;5031860;28;20391;-74
2023/03/16 00:05:45;;;;;;;1.42;1.30;;;3.00;99.90;;;;;;5030293;28;20395;-75
2023/03/16 00:08:11;;;;;;;2.60;1.52;;;2.90;99.90;;;;;;5031626;28;20409;-75
2023/03/16 00:10:36;;;;;;;2.70;1.50;;;2.90;99.90;;;;;;5031552;28;20490;-75
2023/03/16 00:13:02;;;;;;;3.77;1.60;;;2.90;99.90;;;;;;5025599;28;20389;-74
2023/03/16 00:15:28;;;;;;;1.60;1.30;;;2.80;99.90;;;;;;5011763;28;20507;-77
2023/03/16 00:17:54;;;;;;;2.25;1.60;;;2.80;99.90;;;;;;5011710;28;20755;-74
2023/03/16 00:20:19;;;;;;;2.00;1.30;;;2.80;99.90;;;;;;5011806;28;20384;-75
2023/03/16 00:22:45;;;;;;;2.53;1.10;;;2.80;99.90;;;;;;5011817;28;20389;-74
2023/03/16 00:25:13;;;;;;;1.50;1.40;;;2.80;99.90;;;;;;5011726;28;20384;-75
2023/03/16 00:27:39;;;;;;;2.93;1.30;;;2.80;99.90;;;;;;5018455;28;20431;-74
2023/03/16 00:30:05;;;;;;;2.17;1.30;;;2.80;99.90;;;;;;5010167;28;20393;-75
2023/03/16 00:32:33;;;;;;;1.90;1.50;;;2.80;99.90;;;;;;5010746;28;20403;-75
2023/03/16 00:35:00;;;;;;;1.90;1.60;;;2.70;99.90;;;;;;5009943;28;20915;-74
2023/03/16 00:37:27;;;;;;;1.90;1.40;;;2.70;99.90;;;;;;5011143;28;20897;-75
2023/03/16 00:39:57;;;;;;;1.30;1.20;;;2.60;99.90;;;;;;5010066;28;20397;-75
2023/03/16 00:42:26;;;;;;;1.90;1.33;;;2.50;99.90;;;;;;5011409;28;20898;-75
2023/03/16 00:44:56;;;;;;;2.00;1.38;;;2.40;99.90;;;;;;5011335;28;20389;-75
2023/03/16 00:47:23;;;;;;;1.50;1.40;;;2.40;99.90;;;;;;5042384;28;20475;-75
2023/03/16 00:49:49;;;;;;;2.30;1.60;;;2.40;99.90;;;;;;5010623;28;20752;-75
2023/03/16 00:52:14;;;;;;;2.13;1.20;;;2.50;99.90;;;;;;5012345;28;20463;-75
2023/03/16 00:54:42;;;;;;;2.00;1.60;;;2.40;99.90;;;;;;5011025;28;20377;-74
2023/03/16 00:57:10;;;;;;;1.63;1.52;;;2.40;99.90;;;;;;5010777;28;20495;-74
2023/03/16 00:59:36;;;;;;;1.60;1.27;;;2.30;99.90;;;;;;5011080;28;20385;-74
2023/03/16 01:02:04;;;;;;;1.33;1.23;;;2.30;99.90;;;;;;5011118;28;20389;-74
2023/03/16 01:04:31;;;;;;;2.10;1.10;;;2.40;99.90;;;;;;5012120;28;20408;-74
2023/03/16 01:06:57;;;;;;;1.40;1.20;;;2.20;99.90;;;;;;5020027;28;20766;-76
2023/03/16 01:09:22;;;;;;;2.60;1.20;;;2.30;99.90;;;;;;5012157;28;20418;-73
2023/03/16 01:11:52;;;;;;;2.22;1.25;;;2.40;99.90;;;;;;5030889;28;20379;-71
2023/03/16 01:14:18;;;;;;;1.98;1.40;;;2.40;99.90;;;;;;5030570;28;20376;-70
2023/03/16 01:16:44;;;;;;;1.80;1.70;;;2.40;99.90;;;;;;5030311;28;20410;-73
2023/03/16 01:19:11;;;;;;;2.33;1.83;;;2.30;99.90;;;;;;5030430;28;20394;-74
2023/03/16 01:21:37;;;;;;;2.00;1.80;;;2.30;99.90;;;;;;5018139;28;20401;-73
2023/03/16 01:24:03;;;;;;;2.60;2.00;;;2.20;99.90;;;;;;5010549;28;20408;-73
2023/03/16 01:26:29;;;;;;;1.57;1.47;;;2.00;99.90;;;;;;5010277;28;20391;-73
2023/03/16 01:28:54;;;;;;;1.90;1.43;;;1.90;99.90;;;;;;5010445;28;20409;-71
2023/03/16 01:31:20;;;;;;;2.10;1.90;;;2.00;99.90;;;;;;5011183;28;20384;-71
2023/03/16 01:33:46;;;;;;;2.95;1.52;;;2.10;99.90;;;;;;5010635;28;20777;-72
2023/03/16 01:36:14;;;;;;;3.63;1.98;;;2.10;99.90;;;;;;5041833;28;20401;-73
2023/03/16 01:38:40;;;;;;;2.15;1.95;;;2.10;99.90;;;;;;5010456;28;20391;-71
2023/03/16 01:41:06;;;;;;;1.70;1.60;;;2.10;99.90;;;;;;5010411;28;20950;-72
2023/03/16 01:43:33;;;;;;;1.60;1.50;;;1.90;99.90;;;;;;5010641;28;20798;-72
2023/03/16 01:46:05;;;;;;;2.47;1.63;;;1.90;99.90;;;;;;5019908;28;20410;-73
2023/03/16 01:48:41;;;;;;;2.40;1.50;;;1.90;99.90;;;;;;5009683;28;20408;-73
2023/03/16 01:51:10;;;;;;;1.10;1.00;;;1.70;99.90;;;;;;5042094;28;20389;-71
2023/03/16 01:53:38;;;;;;;1.90;1.20;;;1.80;99.90;;;;;;5010314;28;20473;-71
2023/03/16 01:56:07;;;;;;;1.90;1.20;;;1.90;99.90;;;;;;5010033;28;20408;-73
2023/03/16 01:58:35;;;;;;;2.17;1.20;;;1.80;99.90;;;;;;5015871;28;20406;-74
2023/03/16 02:01:02;;;;;;;3.00;1.20;;;1.80;99.90;;;;;;5033846;28;20394;-74
2023/03/16 02:03:28;;;;;;;1.17;1.00;;;1.90;99.90;;;;;;5034002;28;20391;-72
2023/03/16 02:06:23;;;;;;;1.58;1.20;;;1.80;99.90;;;;;;5033944;28;20382;-71
2023/03/16 02:08:54;;;;;;;1.23;0.88;;;1.80;99.90;;;;;;5031607;28;20527;-71
2023/03/16 02:11:21;;;;;;;1.30;1.20;;;1.70;99.90;;;;;;5033881;28;20401;-73
2023/03/16 02:13:47;;;;;;;1.10;0.90;;;1.70;99.90;;;;;;5014694;28;20396;-73
2023/03/16 02:16:18;;;;;;;1.50;0.90;;;1.80;99.90;;;;;;5013967;28;20768;-73
2023/03/16 02:18:45;;;;;;;2.22;1.15;;;1.70;99.90;;;;;;5026830;28;20427;-71
2023/03/16 02:21:24;;;;;;;2.00;1.00;;;1.70;99.90;;;;;;5032203;28;20461;-73
2023/03/16 02:23:50;;;;;;;3.33;1.27;;;1.70;99.90;;;;;;5033680;28;20387;-71
2023/03/16 02:26:44;;;;;;;1.10;1.00;;;1.80;99.90;;;;;;5033367;28;20387;-72
2023/03/16 02:29:20;;;;;;;1.13;0.90;;;1.80;99.90;;;;;;5028998;28;20417;-71
2023/03/16 02:31:46;;;;;;;1.70;1.00;;;1.70;99.90;;;;;;5013852;28;20380;-71
2023/03/16 02:34:14;;;;;;;1.52;0.90;;;1.60;99.90;;;;;;5012819;28;20419;-71
2023/03/16 02:36:42;;;;;;;2.30;1.40;;;1.50;99.90;;;;;;5014288;28;20420;-71
2023/03/16 02:39:08;;;;;;;2.40;1.25;;;1.50;99.90;;;;;;5014537;28;20400;-71
2023/03/16 02:41:33;;;;;;;1.50;1.20;;;1.50;99.90;;;;;;5013857;28;20882;-71
2023/03/16 02:44:24;;;;;;;2.30;1.00;;;1.60;99.90;;;;;;5013622;28;20944;-71
2023/03/16 02:46:53;;;;;;;1.00;0.90;;;1.50;99.90;;;;;;5013404;28;20902;-71
2023/03/16 02:49:32;;;;;;;1.70;1.10;;;1.50;99.90;;;;;;5013101;28;20408;-71
2023/03/16 02:51:58;;;;;;;3.10;1.10;;;1.50;99.90;;;;;;5012252;28;20454;-71
2023/03/16 02:54:24;;;;;;;1.50;1.40;;;1.50;99.90;;;;;;5028811;28;20403;-71
2023/03/16 02:56:50;;;;;;;2.47;1.30;;;1.50;99.90;;;;;;5008509;28;20388;-70
2023/03/16 02:59:16;;;;;;;1.60;1.30;;;1.50;99.90;;;;;;5013205;28;20447;-71
2023/03/16 03:01:41;;;;;;;1.10;1.00;;;1.40;99.90;;;;;;5013296;28;20891;-71
2023/03/16 03:04:07;;;;;;;1.40;1.10;;;1.40;99.90;;;;;;5013401;28;20503;-71
2023/03/16 03:06:33;;;;;;;1.58;1.10;;;1.40;99.90;;;;;;5012916;28;20462;-71
2023/03/16 03:09:00;;;;;;;1.30;1.00;;;1.30;99.90;;;;;;5011827;28;20966;-71
2023/03/16 03:11:27;;;;;;;2.53;1.00;;;1.40;99.90;;;;;;5011962;28;20403;-71
2023/03/16 03:13:53;;;;;;;1.13;1.02;;;1.50;99.90;;;;;;5013114;28;20997;-71
2023/03/16 03:16:20;;;;;;;1.50;1.10;;;1.60;99.90;;;;;;5012569;28;20399;-71
2023/03/16 03:18:46;;;;;;;1.90;1.10;;;1.50;99.90;;;;;;5021404;28;20391;-71
2023/03/16 03:21:11;;;;;;;1.00;0.90;;;1.40;99.90;;;;;;5030095;28;20411;-71
2023/03/16 03:23:37;;;;;;;1.98;1.20;;;1.40;99.90;;;;;;5030362;28;20773;-71
2023/03/16 03:26:03;;;;;;;1.55;1.40;;;1.50;99.90;;;;;;5032450;28;20419;-70
2023/03/16 03:28:29;;;;;;;1.92;1.73;;;1.50;99.90;;;;;;5032683;28;20400;-70
2023/03/16 03:30:55;;;;;;;2.88;1.70;;;1.30;99.90;;;;;;5032345;28;20390;-71
2023/03/16 03:33:21;;;;;;;2.50;1.50;;;1.30;99.90;;;;;;5032579;28;20885;-70
2023/03/16 03:35:52;;;;;;;1.30;1.20;;;1.30;99.90;;;;;;5019388;28;20396;-70
2023/03/16 03:38:17;;;;;;;1.90;1.40;;;1.30;99.90;;;;;;5012717;28;20404;-71
2023/03/16 03:40:42;;;;;;;1.25;1.15;;;1.40;99.90;;;;;;5044229;28;20450;-70
2023/03/16 03:43:08;;;;;;;1.80;1.30;;;1.30;99.90;;;;;;5012557;28;20388;-71
2023/03/16 03:45:33;;;;;;;2.00;1.50;;;1.50;99.90;;;;;;5019363;28;20419;-71
2023/03/16 03:47:59;;;;;;;2.00;1.20;;;1.50;99.90;;;;;;5032167;28;20410;-70
2023/03/16 03:50:24;;;;;;;2.20;1.50;;;1.40;99.90;;;;;;5030692;28;20436;-71
2023/03/16 03:52:50;;;;;;;1.80;1.10;;;1.50;99.90;;;;;;5032177;28;20375;-71
2023/03/16 03:55:15;;;;;;;1.43;1.33;;;1.60;99.90;;;;;;5031952;28;20761;-70
2023/03/16 03:57:41;;;;;;;2.90;1.20;;;1.50;99.90;;;;;;5017304;28;20381;-71
2023/03/16 04:00:10;;;;;;;2.63;1.90;;;1.50;99.90;;;;;;5012081;28;20408;-73
2023/03/16 04:02:36;;;;;;;1.40;1.30;;;1.50;99.90;;;;;;5010952;28;20392;-71
2023/03/16 04:05:02;;;;;;;1.85;1.63;;;1.40;99.90;;;;;;5012010;28;20392;-72
2023/03/16 04:07:27;;;;;;;2.45;1.50;;;1.50;99.90;;;;;;5011920;28;20392;-72
2023/03/16 04:09:53;;;;;;;1.95;1.35;;;1.40;99.90;;;;;;5011716;28;20428;-73
2023/03/16 04:12:18;;;;;;;2.65;1.23;;;1.40;99.90;;;;;;5012267;28;20503;-72
2023/03/16 04:14:44;;;;;;;1.67;1.57;;;1.50;99.90;;;;;;5029904;28;20410;-72
2023/03/16 04:17:11;;;;;;;2.30;1.50;;;1.50;99.90;;;;;;5031577;28;20383;-72
2023/03/16 04:19:36;;;;;;;2.30;1.50;;;1.50;99.90;;;;;;5031415;28;20904;-73
2023/03/16 04:22:02;;;;;;;3.45;1.52;;;1.50;99.90;;;;;;5031525;28;20387;-71
2023/03/16 04:24:27;;;;;;;2.17;1.35;;;1.50;99.90;;;;;;5031507;28;20387;-72
2023/03/16 04:26:53;;;;;;;2.42;1.40;;;1.50;99.90;;;;;;5024921;28;20407;-72
2023/03/16 04:29:19;;;;;;;2.70;1.30;;;1.70;99.90;;;;;;5011382;28;20914;-72
2023/03/16 04:31:45;;;;;;;2.42;1.70;;;1.50;99.90;;;;;;5027399;28;20387;-71
2023/03/16 04:34:11;;;;;;;2.60;1.55;;;1.50;99.90;;;;;;5021220;28;20418;-71
2023/03/16 04:36:37;;;;;;;2.97;1.80;;;1.50;99.90;;;;;;5011435;28;20420;-72
2023/03/16 04:39:04;;;;;;;3.42;1.90;;;1.50;99.90;;;;;;5010492;28;20393;-72
2023/03/16 04:41:30;;;;;;;2.90;2.10;;;1.50;99.90;;;;;;5011544;28;20389;-73
2023/03/16 04:43:57;;;;;;;3.00;2.20;;;1.40;99.90;;;;;;5011689;28;20389;-73
2023/03/16 04:46:25;;;;;;;2.72;1.90;;;1.40;99.90;;;;;;5011560;28;20399;-73
2023/03/16 04:48:50;;;;;;;1.92;1.80;;;1.40;99.90;;;;;;5010334;28;20405;-73
2023/03/16 04:51:16;;;;;;;2.00;1.70;;;1.30;99.90;;;;;;5011329;28;20479;-73
2023/03/16 04:53:43;;;;;;;1.70;1.60;;;1.30;99.90;;;;;;5011520;28;20543;-73
2023/03/16 04:56:18;;;;;;;3.10;2.10;;;1.30;99.90;;;;;;5010013;28;20393;-73
2023/03/16 04:58:48;;;;;;;2.00;1.55;;;1.40;99.90;;;;;;5020169;28;20574;-72
2023/03/16 05:01:14;;;;;;;2.70;1.63;;;1.30;99.90;;;;;;5030810;28;20481;-72
2023/03/16 05:03:39;;;;;;;2.13;1.50;;;1.40;99.90;;;;;;5031197;28;20489;-72
2023/03/16 05:06:05;;;;;;;2.63;2.03;;;1.40;99.90;;;;;;5025358;28;20401;-73
2023/03/16 05:08:31;;;;;;;2.10;1.90;;;1.30;99.90;;;;;;5011215;28;20459;-73
2023/03/16 05:10:57;;;;;;;2.38;2.10;;;1.40;99.90;;;;;;5010950;28;20404;-72
2023/03/16 05:13:23;;;;;;;2.80;1.70;;;1.50;99.90;;;;;;5011467;28;20495;-73
2023/03/16 05:15:48;;;;;;;2.23;1.20;;;1.50;99.90;;;;;;5011904;28;20471;-73
2023/03/16 05:18:14;;;;;;;2.10;1.90;;;1.60;99.90;;;;;;5030909;28;20900;-73
2023/03/16 05:20:41;;;;;;;2.40;1.80;;;1.50;99.90;;;;;;5030894;28;20399;-73
2023/03/16 05:23:07;;;;;;;1.50;1.40;;;1.50;99.90;;;;;;5030908;28;20387;-73
2023/03/16 05:25:33;;;;;;;1.85;1.65;;;1.50;99.90;;;;;;5031066;28;20387;-72
2023/03/16 05:27:58;;;;;;;2.10;1.60;;;1.60;99.90;;;;;;5021927;28;20799;-72
2023/03/16 05:30:25;;;;;;;2.05;1.80;;;1.60;99.90;;;;;;5011030;28;20389;-73
2023/03/16 05:32:51;;;;;;;2.00;1.40;;;1.60;99.90;;;;;;5023223;28;20402;-73
2023/03/16 05:35:17;;;;;;;1.40;1.30;;;1.70;99.90;;;;;;5029376;28;20902;-71
2023/03/16 05:37:42;;;;;;;1.80;1.27;;;1.60;99.90;;;;;;5030617;28;20456;-73
2023/03/16 05:40:16;;;;;;;2.50;1.50;;;1.60;99.90;;;;;;5030465;28;20969;-73
2023/03/16 05:42:46;;;;;;;1.35;1.25;;;1.60;99.90;;;;;;5029334;28;20403;-72
2023/03/16 05:45:14;;;;;;;2.35;1.73;;;1.70;99.90;;;;;;5023603;28;20438;-72
2023/03/16 05:47:40;;;;;;;3.00;1.50;;;1.80;99.90;;;;;;5010492;28;20385;-72
2023/03/16 05:50:08;;;;;;;1.50;1.40;;;1.80;99.90;;;;;;5042173;28;20400;-72
2023/03/16 05:52:33;;;;;;;1.88;1.38;;;1.80;99.90;;;;;;5010561;28;20376;-72
2023/03/16 05:54:59;;;;;;;3.90;1.40;;;1.70;99.90;;;;;;5010926;28;20864;-72
2023/03/16 05:57:24;;;;;;;2.30;1.50;;;1.70;99.90;;;;;;5010491;28;20421;-73
2023/03/16 05:59:50;;;;;;;2.00;1.50;;;1.70;99.90;;;;;;5010118;28;20393;-72
2023/03/16 06:02:16;;;;;;;1.70;1.60;;;1.60;99.90;;;;;;5010379;28;20968;-71
2023/03/16 06:04:42;;;;;;;2.40;2.00;;;1.70;99.90;;;;;;5029412;28;20478;-72
2023/03/16 06:07:07;;;;;;;3.00;2.00;;;1.70;99.90;;;;;;5026215;28;20497;-73
2023/03/16 06:09:33;;;;;;;2.20;2.00;;;1.70;99.90;;;;;;5028779;28;20403;-73
2023/03/16 06:11:58;;;;;;;3.10;1.80;;;1.80;99.90;;;;;;5030344;28;20394;-72
2023/03/16 06:14:24;;;;;;;3.40;1.90;;;1.80;99.90;;;;;;5030155;28;20389;-72
2023/03/16 06:16:49;;;;;;;3.10;2.40;;;1.70;99.90;;;;;;5029838;28;20758;-72
2023/03/16 06:19:15;;;;;;;3.00;2.03;;;1.80;99.90;;;;;;5015183;28;20404;-72
2023/03/16 06:21:41;;;;;;;3.15;2.08;;;1.80;99.90;;;;;;5009662;28;20455;-72
2023/03/16 06:24:08;;;;;;;2.60;2.40;;;1.90;99.90;;;;;;5010865;28;20413;-72
2023/03/16 06:26:34;;;;;;;2.40;2.10;;;2.00;99.90;;;;;;5009952;28;20520;-73
2023/03/16 06:28:59;;;;;;;4.18;2.25;;;2.00;99.90;;;;;;5005130;28;20425;-72
2023/03/16 06:31:25;;;;;;;3.33;2.77;;;1.90;99.90;;;;;;5002710;28;20397;-73
2023/03/16 06:33:51;;;;;;;2.70;2.50;;;2.10;99.90;;;;;;5008225;28;20396;-73
2023/03/16 06:36:16;;;;;;;2.20;1.88;;;2.30;99.90;;;;;;5006240;28;20431;-72
2023/03/16 06:38:42;;;;;;;3.47;2.78;;;2.20;99.90;;;;;;5002986;28;20430;-73
2023/03/16 06:41:07;;;;;;;2.92;2.15;;;2.30;99.90;;;;;;5007715;28;20392;-72
2023/03/16 06:43:33;;;;;;;2.50;1.85;;;2.40;99.90;;;;;;5006754;28;20401;-73
2023/03/16 06:45:58;;;;;;;2.40;2.20;;;2.50;99.90;;;;;;5005353;28;20422;-72
2023/03/16 06:48:24;;;;;;;2.22;1.95;;;2.50;99.90;;;;;;5008677;28;20404;-72
2023/03/16 06:50:50;;;;;;;4.25;1.90;;;2.50;99.90;;;;;;5007177;28;20394;-73
2023/03/16 06:53:15;;;;;;;2.40;2.15;;;2.60;99.90;;;;;;4998457;28;20445;-72
2023/03/16 06:55:41;;;;;;;2.13;1.80;;;2.70;99.90;;;;;;4993816;28;20399;-72
2023/03/16 06:58:07;;;;;;;1.70;1.60;;;2.70;99.90;;;;;;5011979;28;20405;-73
2023/03/16 07:00:32;;;;;;;2.30;1.60;;;2.80;99.90;;;;;;5011886;28;20882;-72
2023/03/16 07:02:59;;;;;;;1.77;1.67;;;3.00;99.90;;;;;;5013350;28;20950;-73
2023/03/16 07:05:24;;;;;;;3.50;1.70;;;3.10;68.70;;;;;;5025133;28;20466;-72
2023/03/16 07:07:50;;;;;;;1.93;1.80;;;3.20;32.90;;;;;;5021764;28;20930;-73
2023/03/16 07:10:16;;;;;;;2.63;2.00;;;3.20;1.00;;;;;;5037703;22;20404;-79
2023/03/16 07:12:43;;;;;;;2.20;1.70;;;3.50;30.00;;;;;;5077207;28;20397;-80
2023/03/16 07:15:09;;;;;;;2.53;1.73;;;3.60;1.00;;;;;;5061644;28;20378;-79
2023/03/16 07:17:35;;;;;;;3.00;2.30;;;4.10;1.00;;;;;;5062820;28;20386;-82
2023/03/16 07:20:04;;;;;;;2.20;2.00;;;3.90;1.00;;;;;;5078081;28;20389;-83
2023/03/16 07:22:31;;;;;;;3.47;1.77;;;4.00;1.00;;;;;;5058056;28;20373;-83
2023/03/16 07:24:57;;;;;;;2.95;1.80;;;4.30;1.00;;;;;;5076559;28;20404;-83
2023/03/16 07:27:23;;;;;;;2.45;1.60;;;4.40;1.00;;;;;;5059835;28;20423;-83
2023/03/16 07:29:51;;;;;;;3.10;1.80;;;4.40;1.00;;;;;;5076026;28;20412;-82
2023/03/16 07:32:17;;;;;;;3.30;1.70;;;4.30;1.00;;;;;;5058304;28;20398;-83
2023/03/16 07:34:42;;;;;;;1.60;1.50;;;4.40;1.00;;;;;;5066983;28;20397;-83
2023/03/16 07:37:08;;;;;;;2.72;1.65;;;4.40;1.00;;;;;;5062344;28;20391;-83
2023/03/16 07:39:35;;;;;;;1.80;1.70;;;4.30;1.00;;;;;;5046285;28;20415;-84
2023/03/16 07:42:01;;;;;;;4.57;1.60;;;4.40;1.00;;;;;;5046614;28;20387;-83
2023/03/16 07:44:27;;;;;;;2.60;1.70;;;4.50;1.00;;;;;;5060945;28;20439;-83
2023/03/16 07:46:52;;;;;;;2.20;2.00;;;4.70;1.00;;;;;;5062086;28;20392;-83
2023/03/16 07:49:18;;;;;;;2.50;1.80;;;4.90;99.90;;;;;;5060747;28;20401;-83
2023/03/16 07:51:44;;;;;;;4.13;1.80;;;5.00;99.90;;;;;;5041847;28;20416;-82
2023/03/16 07:54:09;;;;;;;2.60;2.20;;;5.30;1.00;;;;;;5052932;28;20760;-83
2023/03/16 07:56:35;;;;;;;2.20;2.00;;;5.40;1.00;;;;;;5043522;28;20476;-85
2023/03/16 07:59:01;;;;;;;2.63;1.60;;;5.60;71.40;;;;;;5058727;28;20422;-84
2023/03/16 08:01:27;;;;;;;3.90;1.60;;;5.70;99.90;;;;;;5060234;28;20385;-84
2023/03/16 08:03:53;;;;;;;2.20;1.60;;;5.80;1.00;;;;;;5042164;28;20385;-83
2023/03/16 08:06:20;;;;;;;2.17;1.70;;;5.80;99.90;;;;;;5043430;28;20742;-83
2023/03/16 08:08:45;;;;;;;2.90;1.80;;;5.70;99.90;;;;;;5042753;28;20413;-83
2023/03/16 08:11:11;;;;;;;2.53;1.60;;;5.80;99.90;;;;;;5042643;28;20771;-84
2023/03/16 08:13:36;;;;;;;3.20;1.60;;;5.90;99.90;;;;;;5053310;28;20407;-83
2023/03/16 08:16:04;;;;;;;2.50;2.13;;;6.00;99.90;;;;;;5021676;28;20737;-84
2023/03/16 08:18:30;;;;;;;5.10;2.60;;;6.30;99.90;;;;;;5025137;28;20395;-84
2023/03/16 08:20:56;;;;;;;3.65;2.40;;;6.40;1.00;;;;;;5039526;28;20410;-84
2023/03/16 08:23:23;;;;;;;2.83;2.55;;;6.30;99.90;;;;;;5042377;28;20520;-84
2023/03/16 08:25:54;;;;;;;2.40;2.20;;;6.20;99.90;;;;;;5042705;28;20944;-83
2023/03/16 08:28:20;;;;;;;3.13;2.30;;;6.20;99.90;;;;;;5039539;28;20420;-83
2023/03/16 08:30:49;;;;;;;3.08;2.70;;;6.10;6.60;;;;;;5044890;28;20386;-83
2023/03/16 08:33:16;;;;;;;7.60;3.20;;;6.20;99.90;;;;;;5062379;28;20404;-83
2023/03/16 08:35:43;;;;;;;3.67;3.30;;;6.30;1.00;;;;;;5047715;28;20745;-83
2023/03/16 08:38:09;;;;;;;4.90;2.97;;;6.10;98.10;;;;;;5028579;28;20395;-82
2023/03/16 08:40:35;;;;;;;3.40;3.10;;;6.00;1.00;;;;;;5036014;28;20421;-81
2023/03/16 08:43:02;;;;;;;5.38;3.47;;;6.00;1.00;;;;;;5035716;28;20512;-82
2023/03/16 08:45:28;;;;;;;4.80;3.15;;;6.00;5.30;;;;;;5035953;28;20391;-81
2023/03/16 08:47:53;;;;;;;3.47;3.17;;;5.90;99.90;;;;;;5066228;28;20411;-81
2023/03/16 08:50:19;;;;;;;4.40;3.60;;;6.20;99.90;;;;;;5071644;28;20400;-81
2023/03/16 08:52:45;;;;;;;3.20;2.90;;;6.30;7.30;;;;;;5071106;28;20431;-82
2023/03/16 08:55:12;;;;;;;4.10;3.70;;;6.20;24.60;;;;;;5068399;28;20456;-83
2023/03/16 08:57:39;;;;;;;4.78;3.45;;;6.40;1.00;;;;;;5050431;28;20426;-82
2023/03/16 09:00:12;;;;;;;4.40;3.30;;;6.40;1.00;;;;;;5041634;28;20409;-83
2023/03/16 09:02:39;;;;;;;4.70;3.75;;;6.40;19.30;;;;;;5043136;28;20437;-82
2023/03/16 09:05:07;;;;;;;4.60;4.15;;;6.40;1.00;;;;;;5041641;28;20431;-83
2023/03/16 09:07:34;;;;;;;4.28;3.95;;;6.50;1.00;;;;;;5023649;28;20396;-83
2023/03/16 09:09:59;;;;;;;5.20;4.10;;;6.70;1.00;;;;;;5040624;28;20438;-82
2023/03/16 09:12:25;;;;;;;5.33;4.27;;;6.70;1.00;;;;;;5054806;28;20390;-82
2023/03/16 09:14:51;;;;;;;5.50;4.00;;;6.70;1.00;;;;;;5037518;28;20377;-82
2023/03/16 09:17:16;;;;;;;4.50;3.97;;;6.90;1.00;;;;;;5037659;28;20406;-82
2023/03/16 09:19:42;;;;;;;4.50;4.10;;;6.60;99.90;;;;;;5045811;28;20432;-83
2023/03/16 09:22:07;;;;;;;4.20;3.80;;;6.70;1.00;;;;;;5049611;28;20473;-83
2023/03/16 09:24:33;;;;;;;6.10;3.92;;;6.70;1.00;;;;;;5044366;28;20937;-83
2023/03/16 09:26:58;;;;;;;5.87;4.20;;;6.90;99.90;;;;;;5062084;28;20900;-83
2023/03/16 09:29:24;;;;;;;5.20;4.25;;;7.30;1.00;;;;;;5061425;28;20410;-83
2023/03/16 09:31:50;;;;;;;5.60;3.90;;;7.40;1.00;;;;;;5043443;28;20382;-83
2023/03/16 09:34:15;;;;;;;5.63;3.80;;;7.40;1.00;;;;;;5061989;28;20388;-83
2023/03/16 09:36:41;;;;;;;5.57;4.03;;;7.50;1.00;;;;;;5027872;28;20398;-83
2023/03/16 09:39:07;;;;;;;4.90;4.50;;;7.50;1.00;;;;;;5025306;28;20391;-83
2023/03/16 09:41:56;;;;;;;4.78;3.85;;;7.50;1.00;;;;;;5061292;28;20388;-84
2023/03/16 09:44:49;;;;;;;4.47;4.07;;;7.70;1.00;;;;;;5061093;28;20484;-83
2023/03/16 09:47:26;;;;;;;4.20;3.80;;;8.00;1.00;;;;;;5060327;28;20928;-82
2023/03/16 09:49:54;;;;;;;4.28;3.85;;;8.10;1.00;;;;;;5042869;28;20409;-82
2023/03/16 09:52:35;;;;;;;4.83;4.33;;;8.20;1.00;;;;;;5060376;28;20468;-83
2023/03/16 09:55:15;;;;;;;5.20;4.43;;;8.20;99.90;;;;;;5034411;28;20523;-82
2023/03/16 09:57:43;;;;;;;4.60;4.00;;;8.10;1.00;;;;;;5066998;28;20390;-82
2023/03/16 10:00:30;;;;;;;3.87;3.57;;;8.20;99.90;;;;;;5055850;28;20366;-83
2023/03/16 10:03:09;;;;;;;3.97;3.50;;;8.20;99.90;;;;;;5048859;28;20413;-85
2023/03/16 10:05:37;;;;;;;5.43;3.60;;;8.10;99.90;;;;;;5048104;28;20396;-82
2023/03/16 10:08:18;;;;;;;4.85;3.00;;;8.20;99.90;;;;;;5063155;28;20413;-83
2023/03/16 10:11:06;;;;;;;4.07;3.38;;;8.50;99.90;;;;;;5040704;28;20399;-82
2023/03/16 10:13:52;;;;;;;3.50;3.20;;;8.80;99.90;;;;;;5042259;28;20459;-82
2023/03/16 10:16:24;;;;;;;4.05;3.03;;;8.60;99.90;;;;;;5041525;28;20381;-83
2023/03/16 10:18:57;;;;;;;3.50;3.20;;;8.90;73.10;;;;;;5041593;28;20757;-82
2023/03/16 10:21:23;;;;;;;3.60;3.30;;;8.70;1.00;;;;;;5044411;28;20833;-83
2023/03/16 10:23:53;;;;;;;4.20;3.00;;;8.70;1.00;;;;;;5036627;28;20403;-81
2023/03/16 10:26:25;;;;;;;3.40;3.10;;;8.90;1.00;;;;;;5057333;28;20759;-83
2023/03/16 10:28:51;;;;;;;4.55;3.08;;;9.00;1.00;;;;;;5058412;28;20426;-81
2023/03/16 10:31:20;;;;;;;3.28;2.90;;;9.10;1.00;;;;;;5037775;28;20409;-82
2023/03/16 10:33:48;;;;;;;4.80;2.60;;;8.90;1.00;;;;;;5046486;28;20461;-82
2023/03/16 10:36:24;;;;;;;3.33;3.03;;;8.80;1.00;;;;;;5027341;28;20477;-82
2023/03/16 10:39:02;;;;;;;4.57;3.20;;;9.00;1.00;;;;;;5023791;28;20387;-82
2023/03/16 10:41:35;;;;;;;3.90;2.60;;;9.10;1.00;;;;;;5023921;28;20900;-83
2023/03/16 10:44:22;;;;;;;2.90;2.70;;;9.20;1.00;;;;;;5057790;28;20409;-82
2023/03/16 10:46:57;;;;;;;4.30;2.80;;;9.30;1.00;;;;;;5043276;28;20382;-82
2023/03/16 10:49:35;;;;;;;3.00;2.70;;;9.30;1.00;;;;;;5049125;28;20885;-82
2023/03/16 10:52:11;;;;;;;3.00;2.40;;;9.50;1.00;;;;;;5023302;28;20406;-82
2023/03/16 10:54:39;;;;;;;4.50;2.60;;;9.50;1.00;;;;;;5023753;28;20387;-82
2023/03/16 10:57:34;;;;;;;3.88;2.70;;;9.60;1.00;;;;;;5032167;28;20489;-82
2023/03/16 11:00:15;;;;;;;2.57;2.37;;;9.90;1.00;;;;;;5061472;28;20389;-82
2023/03/16 11:02:41;;;;;;;3.58;2.60;;;9.80;1.00;;;;;;5059973;28;20389;-82
2023/03/16 11:05:27;;;;;;;4.85;2.80;;;9.90;1.00;;;;;;5056226;28;20391;-82
2023/03/16 11:08:00;;;;;;;2.58;2.38;;;10.10;1.00;;;;;;5022315;28;21019;-82
2023/03/16 11:10:34;;;;;;;3.30;2.70;;;10.10;1.00;;;;;;5039761;28;20379;-82
2023/03/16 11:13:03;;;;;;;2.30;2.10;;;10.50;99.90;;;;;;5040334;28;20410;-82
2023/03/16 11:15:38;;;;;;;3.57;2.73;;;10.80;99.90;;;;;;5022914;28;20387;-82
2023/03/16 11:18:05;;;;;;;4.38;2.60;;;10.60;99.90;;;;;;5064353;28;20419;-82
2023/03/16 11:20:33;;;;;;;2.60;2.40;;;10.70;99.90;;;;;;5060697;28;20389;-82
2023/03/16 11:23:00;;;;;;;3.13;2.50;;;10.70;99.90;;;;;;5039447;28;20413;-83
2023/03/16 11:25:45;;;;;;;2.53;2.33;;;10.70;99.90;;;;;;5043500;28;20428;-82
2023/03/16 11:28:18;;;;;;;2.97;2.05;;;10.90;99.90;;;;;;5042689;28;20416;-82
2023/03/16 11:31:00;;;;;;;4.30;2.28;;;11.30;99.90;;;;;;5062271;28;20391;-82
2023/03/16 11:33:29;;;;;;;3.28;2.40;;;11.40;99.90;;;;;;5046487;28;20383;-83
2023/03/16 11:36:18;;;;;;;2.70;2.20;;;11.60;99.90;;;;;;5024031;28;20410;-83
2023/03/16 11:39:09;;;;;;;2.67;2.10;;;11.60;99.90;;;;;;5023595;28;20395;-82
2023/03/16 11:41:42;;;;;;;2.42;2.17;;;12.70;99.90;;;;;;5030278;28;20401;-82
2023/03/16 11:44:19;;;;;;;3.78;2.13;;;13.10;99.90;;;;;;5049008;28;21055;-82
2023/03/16 11:47:12;;;;;;;3.85;2.30;;;13.70;99.90;;;;;;5021390;28;20407;-82
2023/03/16 11:49:54;;;;;;;3.15;2.28;;;13.60;99.90;;;;;;5039431;28;20418;-83
2023/03/16 11:52:31;;;;;;;3.80;2.08;;;14.70;99.90;;;;;;5021916;28;20391;-83
2023/03/16 11:55:16;;;;;;;3.15;2.20;;;14.60;84.00;;;;;;5026383;28;20414;-82
2023/03/16 11:58:21;;;;;;;3.58;2.03;;;14.50;70.50;;;;;;5037136;28;20395;-82
2023/03/16 12:00:55;;;;;;;1.90;1.80;;;15.40;62.90;;;;;;5036332;28;20462;-82
2023/03/16 12:03:27;;;;;;;2.85;2.20;;;15.10;50.10;;;;;;5043786;28;20400;-83
2023/03/16 12:06:01;;;;;;;2.40;1.88;;;15.10;47.80;;;;;;5019056;28;20395;-83
2023/03/16 12:09:05;;;;;;;2.20;2.00;;;15.70;32.00;;;;;;5018223;28;20797;-83
2023/03/16 12:11:35;;;;;;;3.07;2.03;;;15.50;35.80;;;;;;5032198;28;20927;-81
2023/03/16 12:14:23;;;;;;;3.00;2.20;;;17.10;28.00;;;;;;5035430;28;20467;-82
2023/03/16 12:17:07;;;;;;;2.50;2.00;;;16.60;20.70;;;;;;5051890;28;20480;-82
2023/03/16 12:19:55;;;;;;;3.20;2.05;;;17.00;18.00;;;;;;5048306;28;20373;-82
2023/03/16 12:22:36;;;;;;;3.40;1.90;;;15.30;17.40;;;;;;5040342;28;20895;-82
2023/03/16 12:25:03;;;;;;;2.13;1.92;;;15.80;18.40;;;;;;5037596;28;20394;-81
2023/03/16 12:27:30;;;;;;;1.90;1.60;;;15.70;21.20;;;;;;5055709;28;20385;-82
2023/03/16 12:30:24;;;;;;;2.08;1.88;;;16.10;16.00;;;;;;5045960;28;20414;-81
2023/03/16 12:33:23;;;;;;;2.50;1.77;;;16.10;13.60;;;;;;5036341;28;20375;-81
2023/03/16 12:36:08;;;;;;;3.30;2.03;;;16.70;16.30;;;;;;5036066;28;20840;-82
2023/03/16 12:38:39;;;;;;;2.45;2.10;;;16.70;12.50;;;;;;5019038;28;20391;-81
2023/03/16 12:41:33;;;;;;;3.17;1.90;;;16.40;7.00;;;;;;5037226;28;20889;-81
2023/03/16 12:44:17;;;;;;;2.95;2.53;;;16.20;5.50;;;;;;5021959;28;20403;-82
2023/03/16 12:47:21;;;;;;;2.30;2.10;;;16.30;6.80;;;;;;5038664;28;20478;-82
2023/03/16 12:49:48;;;;;;;2.55;2.20;;;16.70;7.30;;;;;;5038133;28;20439;-82
2023/03/16 12:52:13;;;;;;;2.40;1.83;;;16.30;6.00;;;;;;5038622;28;20390;-83
2023/03/16 12:54:50;;;;;;;1.73;1.63;;;17.30;9.30;;;;;;5042388;28;20393;-82
2023/03/16 12:57:17;;;;;;;2.70;2.00;;;16.70;6.80;;;;;;5046620;28;20422;-83
2023/03/16 12:59:45;;;;;;;2.20;2.00;;;16.40;1.00;;;;;;5046902;28;20394;-82
2023/03/16 13:02:25;;;;;;;2.50;2.08;;;16.90;1.20;;;;;;5044454;28;20387;-81
2023/03/16 13:05:00;;;;;;;3.05;1.80;;;16.50;1.60;;;;;;5026990;28;20390;-82
2023/03/16 13:07:29;;;;;;;3.25;2.03;;;16.80;3.70;;;;;;5029619;28;20391;-82
2023/03/16 13:10:01;;;;;;;2.80;2.10;;;15.80;3.70;;;;;;5060772;28;20437;-81